»·PEaware :: N1SC KSMO-KOXR

N1SC :: KSMO-KOXR

FLIGHT INFORMATION

Flight Status: Arrived
Operator: Privately registered:
United States
More flights under this callsign
Pilot: Anonymous 10181 (10181)
Aircraft: PIPER PA-28 CHEROKEE ARCHER
(P28A)
More flights by this aircraft type
Origin: KSMO Santa Monica Mun
United States
Destination: KOXR Oxnard
United States
More flights between these airports :: More routes between these airports
Route: SMO VNY V326 GINNA
File this flight plan on PilotEdge
Remarks: Happy Saturday!
Altitude:
(Current/Filed)
4,000ft
Speed:
(Current/Filed)
100kts
Departed: 19-Dec-20 05:30 PM
Arrived: 19-Dec-20 06:09 PM
Distance/Time
Traveled:
39nm/0:38
Distance/Time
To Go:
Arrived

Flight Plot

Page will automatically refresh every two minutes.

Flight plan parsing failed; only flown route is shown


Map Options




Map Legend


Flown Route
Filed Route
Departure Airport
Arrival Airport
Navaid (VOR, NDB)
Fix

Horizontal Profiles

Position Reports

Time Latitude Longitude Heading Altitude Ground
Speed
19-Dec-20 17:04 34.019506 -118.448504 45 171ft 0kts
19-Dec-20 17:04 34.019506 -118.448504 45 171ft 0kts
19-Dec-20 17:05 34.019506 -118.448504 45 171ft 0kts
19-Dec-20 17:07 34.019506 -118.448504 45 171ft 0kts
19-Dec-20 17:07 34.019506 -118.448504 45 171ft 0kts
19-Dec-20 17:09 34.019506 -118.448504 45 171ft 0kts
19-Dec-20 17:09 34.019506 -118.448504 45 171ft 0kts
19-Dec-20 17:10 34.019507 -118.448504 45 171ft 0kts
19-Dec-20 17:12 34.019507 -118.448504 45 171ft 0kts
19-Dec-20 17:12 34.019507 -118.448504 45 171ft 0kts
19-Dec-20 17:14 34.019507 -118.448504 45 171ft 0kts
19-Dec-20 17:14 34.019507 -118.448504 45 171ft 0kts
19-Dec-20 17:15 34.019507 -118.448504 45 171ft 0kts
19-Dec-20 17:16 34.019507 -118.448504 45 171ft 0kts
19-Dec-20 17:17 34.019507 -118.448504 45 171ft 0kts
19-Dec-20 17:18 34.019507 -118.448504 45 171ft 0kts
19-Dec-20 17:19 34.019506 -118.448504 45 171ft 0kts
19-Dec-20 17:20 34.019506 -118.448504 45 171ft 0kts
19-Dec-20 17:21 34.019506 -118.448504 45 171ft 0kts
19-Dec-20 17:22 34.019506 -118.448504 45 171ft 0kts
19-Dec-20 17:23 34.019507 -118.448504 45 171ft 0kts
19-Dec-20 17:24 34.019507 -118.448504 45 171ft 0kts
19-Dec-20 17:25 34.019641 -118.447908 110 172ft 0kts
19-Dec-20 17:26 34.019574 -118.447779 127 172ft 1kts
19-Dec-20 17:27 34.019535 -118.447718 127 172ft 0kts
19-Dec-20 17:28 34.019128 -118.447387 219 172ft 0kts
19-Dec-20 17:29 34.012562 -118.455441 226 487ft 73kts
19-Dec-20 17:30 33.996955 -118.470958 219 1479ft 76kts
19-Dec-20 17:31 33.986177 -118.492013 254 2338ft 82kts
19-Dec-20 17:32 33.978973 -118.518359 250 3133ft 84kts
19-Dec-20 17:33 33.976590 -118.544455 326 3839ft 84kts
19-Dec-20 17:34 33.999184 -118.536502 71 4092ft 100kts
19-Dec-20 17:35 33.997782 -118.500413 88 3959ft 112kts
19-Dec-20 17:36 33.996698 -118.463919 84 3972ft 104kts
19-Dec-20 17:37 34.008931 -118.443503 329 4107ft 99kts
19-Dec-20 17:38 34.033550 -118.460837 331 4050ft 102kts
19-Dec-20 17:39 34.058469 -118.477024 342 4033ft 102kts
19-Dec-20 17:40 34.085746 -118.486034 341 4028ft 101kts
19-Dec-20 17:41 34.113329 -118.493439 354 4013ft 102kts
19-Dec-20 17:42 34.141448 -118.498208 350 4224ft 102kts
19-Dec-20 17:43 34.169715 -118.499380 0 4529ft 101kts
19-Dec-20 17:44 34.196394 -118.495904 6 5059ft 92kts
19-Dec-20 17:45 34.216449 -118.504904 288 5757ft 92kts
19-Dec-20 17:46 34.219886 -118.538638 283 6043ft 100kts
19-Dec-20 17:47 34.214970 -118.572978 269 6022ft 104kts
19-Dec-20 17:48 34.211709 -118.608161 265 6049ft 105kts
19-Dec-20 17:49 34.207402 -118.643090 274 6077ft 104kts
19-Dec-20 17:50 34.209966 -118.677872 290 6096ft 103kts
19-Dec-20 17:51 34.218425 -118.710666 271 6073ft 108kts
19-Dec-20 17:52 34.219959 -118.747987 278 5903ft 101kts
19-Dec-20 17:53 34.221351 -118.780941 278 6105ft 100kts
19-Dec-20 17:54 34.224156 -118.815805 263 6073ft 104kts
19-Dec-20 17:55 34.225223 -118.851453 286 5957ft 108kts
19-Dec-20 17:56 34.225830 -118.886596 260 5981ft 106kts
19-Dec-20 17:57 34.216955 -118.920390 250 6051ft 106kts
19-Dec-20 17:58 34.211204 -118.955210 270 6041ft 108kts
19-Dec-20 17:59 34.214810 -118.990375 292 5338ft 107kts
19-Dec-20 18:00 34.216210 -119.022646 267 4654ft 86kts
19-Dec-20 18:01 34.210653 -119.050505 256 3880ft 85kts
19-Dec-20 18:02 34.209138 -119.077871 274 3139ft 79kts
19-Dec-20 18:03 34.212930 -119.103097 277 2476ft 76kts
19-Dec-20 18:04 34.211146 -119.126318 253 1920ft 65kts
19-Dec-20 18:05 34.205564 -119.151432 256 1395ft 81kts
19-Dec-20 18:06 34.201346 -119.173675 250 735ft 63kts
19-Dec-20 18:07 34.200680 -119.192263 268 209ft 53kts
19-Dec-20 18:08 34.199993 -119.203175 180 43ft 6kts

Navigation Log

Ident Type
Flight plan parsing failed, navigation log unavailable